Time;durP1;ratioP1;P1;durP2;ratioP2;P2;SDS_P1;SDS_P2;PMS_P1;PMS_P2;Temp;Humidity;BMP_temperature;BMP_pressure;BME280_temperature;BME280_humidity;BME280_pressure;Samples;Min_cycle;Max_cycle;Signal;HPM_P1;HPM_P2
2021/12/25 00:01:29;;;;;;;10.63;2.30;;;-2.10;99.90;;;;;;4995187;28;20109;-61
2021/12/25 00:03:56;;;;;;;10.52;3.08;;;-2.10;99.90;;;;;;4993903;28;20058;-63
2021/12/25 00:06:22;;;;;;;12.05;3.05;;;-2.10;99.90;;;;;;4992010;28;20440;-60
2021/12/25 00:08:48;;;;;;;9.68;3.30;;;-2.00;99.90;;;;;;4990117;28;20033;-61
2021/12/25 00:11:14;;;;;;;10.18;2.85;;;-2.00;99.90;;;;;;4995273;28;20026;-62
2021/12/25 00:13:41;;;;;;;7.25;3.00;;;-2.00;99.90;;;;;;4995581;28;20034;-62
2021/12/25 00:16:07;;;;;;;7.97;2.65;;;-2.00;99.90;;;;;;5009262;28;20405;-62
2021/12/25 00:18:34;;;;;;;5.80;2.17;;;-2.10;99.90;;;;;;4992906;28;20030;-62
2021/12/25 00:21:00;;;;;;;11.50;3.08;;;-2.10;99.90;;;;;;4995781;28;20031;-59
2021/12/25 00:23:26;;;;;;;6.22;2.55;;;-2.00;99.90;;;;;;4995985;28;20242;-60
2021/12/25 00:25:58;;;;;;;7.35;2.70;;;-2.10;99.90;;;;;;4995685;28;20018;-60
2021/12/25 00:31:26;;;;;;;8.80;2.95;;;-2.20;99.90;;;;;;4999666;28;20461;-61
2021/12/25 00:33:57;;;;;;;8.93;3.47;;;-2.10;99.90;;;;;;4999031;28;20042;-62
2021/12/25 00:36:24;;;;;;;8.63;3.10;;;-2.10;99.90;;;;;;5001019;28;20042;-60
2021/12/25 00:38:51;;;;;;;11.13;2.92;;;-2.20;99.90;;;;;;5000999;28;20261;-62
2021/12/25 00:41:19;;;;;;;9.30;3.30;;;-2.10;99.90;;;;;;5002316;28;20085;-61
2021/12/25 00:43:45;;;;;;;12.02;3.13;;;-2.20;99.90;;;;;;5015879;28;20029;-61
2021/12/25 00:46:11;;;;;;;13.10;3.42;;;-2.30;99.90;;;;;;5018190;28;20109;-61
2021/12/25 00:48:37;;;;;;;8.02;3.10;;;-2.30;99.90;;;;;;5018098;28;20069;-60
2021/12/25 00:51:04;;;;;;;12.15;3.75;;;-2.30;99.90;;;;;;5019361;28;20026;-60
2021/12/25 00:53:30;;;;;;;11.27;4.13;;;-2.30;99.90;;;;;;5011845;28;20026;-61
2021/12/25 00:55:57;;;;;;;14.00;3.83;;;-2.40;99.90;;;;;;5015096;28;20041;-61
2021/12/25 00:58:23;;;;;;;8.27;3.78;;;-2.40;99.90;;;;;;5016039;28;20108;-61
2021/12/25 01:00:48;;;;;;;10.15;3.50;;;-2.40;99.90;;;;;;5019722;28;20054;-60
2021/12/25 01:03:14;;;;;;;11.75;4.38;;;-2.30;99.90;;;;;;5017028;28;20133;-61
2021/12/25 01:05:40;;;;;;;16.40;5.45;;;-2.40;99.90;;;;;;5016574;28;20032;-62
2021/12/25 01:08:07;;;;;;;12.25;5.13;;;-2.50;99.90;;;;;;5008631;28;20026;-63
2021/12/25 01:10:34;;;;;;;12.57;4.88;;;-2.40;99.90;;;;;;5011500;28;20368;-64
2021/12/25 01:13:14;;;;;;;10.88;5.03;;;-2.50;99.90;;;;;;5008106;28;20042;-61
2021/12/25 01:31:50;;;;;;;16.40;4.95;;;-2.60;99.90;;;;;;5007094;28;20041;-63
2021/12/25 01:37:04;;;;;;;11.38;4.75;;;-2.60;99.90;;;;;;5012990;28;20121;-61
2021/12/25 01:49:51;;;;;;;12.40;4.70;;;-2.70;99.90;;;;;;5011487;28;20454;-62
2021/12/25 01:52:17;;;;;;;11.05;5.28;;;-2.70;99.90;;;;;;5020333;28;20021;-64
2021/12/25 01:54:42;;;;;;;13.43;4.88;;;-2.70;99.90;;;;;;5014801;28;20136;-63
2021/12/25 01:57:08;;;;;;;7.03;4.10;;;-2.60;99.90;;;;;;5016057;28;20034;-62
2021/12/25 01:59:34;;;;;;;13.55;5.00;;;-2.60;99.90;;;;;;5014966;28;20553;-62
2021/12/25 02:02:00;;;;;;;12.13;4.57;;;-2.60;99.90;;;;;;5013383;28;20176;-63
2021/12/25 02:04:26;;;;;;;14.15;3.88;;;-2.70;99.90;;;;;;5012536;28;20024;-62
2021/12/25 02:06:51;;;;;;;9.75;4.25;;;-2.70;99.90;;;;;;5013117;28;20030;-62
2021/12/25 02:09:17;;;;;;;8.60;4.50;;;-2.70;99.90;;;;;;5011916;28;20052;-62
2021/12/25 02:11:43;;;;;;;11.40;3.50;;;-2.70;99.90;;;;;;5009904;28;20046;-62
2021/12/25 02:14:09;;;;;;;8.07;3.20;;;-2.70;99.90;;;;;;5012443;28;20038;-62
2021/12/25 02:16:51;;;;;;;10.73;3.28;;;-2.70;99.90;;;;;;4994614;28;20056;-62
2021/12/25 02:19:31;;;;;;;;;;;-2.70;99.90;;;;;;5036348;28;20423;-62
2021/12/25 02:22:00;;;;;;;5.78;3.10;;;-2.70;99.90;;;;;;5010709;28;20299;-61
2021/12/25 02:24:26;;;;;;;7.55;3.28;;;-2.70;99.90;;;;;;5012215;28;20045;-62
2021/12/25 02:26:52;;;;;;;8.75;3.53;;;-2.70;99.90;;;;;;5025826;28;20419;-60
2021/12/25 02:29:17;;;;;;;8.18;3.10;;;-2.70;99.90;;;;;;5011159;28;20026;-63
2021/12/25 02:31:43;;;;;;;8.43;2.85;;;-2.70;99.90;;;;;;5010376;28;20055;-65
2021/12/25 02:34:09;;;;;;;10.55;3.40;;;-2.70;99.90;;;;;;5009670;28;20090;-61
2021/12/25 02:36:34;;;;;;;8.73;3.53;;;-2.70;99.90;;;;;;5026856;28;20093;-62
2021/12/25 02:39:00;;;;;;;10.73;4.60;;;-2.70;99.90;;;;;;5010888;28;20025;-63
2021/12/25 02:41:25;;;;;;;8.80;3.03;;;-2.70;99.90;;;;;;5010381;28;20022;-62
2021/12/25 02:43:51;;;;;;;16.45;3.72;;;-2.70;99.90;;;;;;5010499;28;20040;-62
2021/12/25 02:46:17;;;;;;;9.00;3.65;;;-2.70;99.90;;;;;;4998985;28;20050;-61
2021/12/25 02:48:43;;;;;;;9.98;3.60;;;-2.70;99.90;;;;;;5010045;28;20056;-62
2021/12/25 02:51:11;;;;;;;7.53;4.00;;;-2.70;99.90;;;;;;5010705;28;20382;-62
2021/12/25 02:53:38;;;;;;;6.43;2.90;;;-2.70;99.90;;;;;;5000978;28;20121;-61
2021/12/25 02:56:04;;;;;;;9.23;3.40;;;-2.70;99.90;;;;;;4998738;28;20428;-61
2021/12/25 02:58:30;;;;;;;8.00;3.15;;;-2.70;99.90;;;;;;5002573;28;20404;-61
2021/12/25 03:01:04;;;;;;;11.70;3.60;;;-2.70;99.90;;;;;;5011069;28;20034;-66
2021/12/25 03:03:30;;;;;;;13.15;3.65;;;-2.80;99.90;;;;;;4995696;28;20136;-64
2021/12/25 03:05:56;;;;;;;7.22;3.20;;;-2.70;99.90;;;;;;4999566;28;20812;-63
2021/12/25 03:08:21;;;;;;;14.07;3.45;;;-2.70;99.90;;;;;;4990541;28;20030;-63
2021/12/25 03:10:49;;;;;;;9.40;3.80;;;-2.80;99.90;;;;;;4989941;28;20052;-61
2021/12/25 03:15:46;;;;;;;8.45;3.03;;;-2.70;99.90;;;;;;5010680;28;20026;-62
2021/12/25 03:18:27;;;;;;;5.20;2.75;;;-2.80;99.90;;;;;;5006147;28;20438;-65
2021/12/25 03:20:58;;;;;;;9.63;4.05;;;-2.80;99.90;;;;;;4984743;28;20042;-63
2021/12/25 03:23:25;;;;;;;8.23;3.38;;;-2.90;99.90;;;;;;4991752;28;20029;-61
2021/12/25 03:25:52;;;;;;;10.85;3.50;;;-2.90;99.90;;;;;;4991521;28;20030;-62
2021/12/25 03:28:21;;;;;;;18.90;3.15;;;-2.90;99.90;;;;;;4990070;28;20388;-64
2021/12/25 03:30:47;;;;;;;8.15;3.35;;;-2.90;99.90;;;;;;4990236;28;20030;-62
2021/12/25 03:33:17;;;;;;;11.88;3.40;;;-2.90;99.90;;;;;;4989424;28;20105;-63
2021/12/25 03:35:42;;;;;;;9.55;2.90;;;-2.80;99.90;;;;;;5000798;28;20496;-63
2021/12/25 03:38:11;;;;;;;8.35;3.30;;;-2.80;99.90;;;;;;4990221;28;22297;-62
2021/12/25 03:40:37;;;;;;;8.27;3.78;;;-2.80;99.90;;;;;;4989814;28;20468;-65
2021/12/25 03:43:03;;;;;;;7.03;3.00;;;-2.90;99.90;;;;;;4990025;28;20538;-63
2021/12/25 03:45:31;;;;;;;14.40;3.95;;;-2.90;99.90;;;;;;4990055;28;20069;-64
2021/12/25 03:48:13;;;;;;;11.70;3.50;;;-2.90;99.90;;;;;;4995552;28;20033;-60
2021/12/25 03:58:53;;;;;;;14.68;3.42;;;-2.90;99.90;;;;;;4991839;28;20115;-62
2021/12/25 04:06:45;;;;;;;9.73;3.05;;;-2.90;99.90;;;;;;4994280;28;20089;-62
2021/12/25 04:12:11;;;;;;;8.07;3.20;;;-2.90;99.90;;;;;;4993934;28;20124;-63
2021/12/25 04:14:38;;;;;;;8.93;2.88;;;-3.00;99.90;;;;;;4995817;28;20061;-62
2021/12/25 04:17:04;;;;;;;6.85;2.65;;;-3.00;99.90;;;;;;5008528;28;20030;-62
2021/12/25 04:19:30;;;;;;;8.70;2.67;;;-3.00;99.90;;;;;;5006815;28;20026;-61
2021/12/25 04:22:00;;;;;;;6.35;2.63;;;-3.00;99.90;;;;;;4999659;28;20046;-61
2021/12/25 04:24:28;;;;;;;5.40;2.35;;;-3.00;99.90;;;;;;5012947;28;20076;-63
2021/12/25 04:26:54;;;;;;;4.50;2.45;;;-3.00;99.90;;;;;;4995653;28;20822;-64
2021/12/25 04:32:26;;;;;;;12.30;3.78;;;-3.00;99.90;;;;;;4992968;28;20495;-62
2021/12/25 05:02:47;;;;;;;14.20;3.33;;;-3.10;99.90;;;;;;5010756;28;20032;-62
2021/12/25 05:05:00;;;;;;;8.27;2.85;;;-3.20;99.90;;;;;;5006442;28;20143;-62
2021/12/25 05:07:25;;;;;;;7.75;3.63;;;-3.20;99.90;;;;;;5010934;28;20052;-61
2021/12/25 05:09:51;;;;;;;6.82;2.83;;;-3.20;99.90;;;;;;5013035;28;20476;-63
2021/12/25 05:12:17;;;;;;;16.15;3.47;;;-3.20;99.90;;;;;;5009885;28;20030;-62
2021/12/25 05:14:42;;;;;;;7.43;3.40;;;-3.20;99.90;;;;;;4995148;28;20488;-62
2021/12/25 05:17:10;;;;;;;14.07;3.33;;;-3.20;99.90;;;;;;5011295;28;20399;-62
2021/12/25 05:19:36;;;;;;;7.80;3.30;;;-3.20;99.90;;;;;;5011566;28;20061;-65
2021/12/25 05:22:02;;;;;;;18.48;3.67;;;-3.30;99.90;;;;;;5006401;28;20088;-63
2021/12/25 05:24:28;;;;;;;13.23;3.63;;;-3.20;99.90;;;;;;5008564;28;20037;-63
2021/12/25 05:26:57;;;;;;;22.35;4.65;;;-3.20;99.90;;;;;;5011207;28;20124;-64
2021/12/25 05:29:24;;;;;;;11.00;2.92;;;-3.20;99.90;;;;;;5008462;28;20121;-61
2021/12/25 05:31:51;;;;;;;15.30;2.97;;;-3.20;99.90;;;;;;5010648;28;20033;-62
2021/12/25 05:34:17;;;;;;;6.57;2.80;;;-3.20;99.90;;;;;;5010356;28;20396;-61
2021/12/25 05:36:43;;;;;;;12.45;3.13;;;-3.20;99.90;;;;;;5008672;28;20018;-62
2021/12/25 05:39:12;;;;;;;12.85;3.80;;;-3.20;99.90;;;;;;5010867;28;20033;-62
2021/12/25 05:41:38;;;;;;;15.27;3.33;;;-3.20;99.90;;;;;;5009965;28;20022;-63
2021/12/25 05:44:04;;;;;;;6.32;2.72;;;-3.30;99.90;;;;;;5010443;28;20034;-63
2021/12/25 05:46:30;;;;;;;10.20;2.88;;;-3.30;99.90;;;;;;5009958;28;20112;-63
2021/12/25 05:48:56;;;;;;;9.05;3.30;;;-3.20;99.90;;;;;;5009660;28;20045;-61
2021/12/25 05:51:22;;;;;;;6.93;2.78;;;-3.20;99.90;;;;;;5010029;28;20034;-62
2021/12/25 05:53:48;;;;;;;14.68;3.22;;;-3.20;99.90;;;;;;5010404;28;20053;-60
2021/12/25 05:56:14;;;;;;;9.20;2.60;;;-3.20;99.90;;;;;;5010511;28;20038;-62
2021/12/25 05:58:40;;;;;;;11.95;3.20;;;-3.20;99.90;;;;;;5010051;28;20404;-63
2021/12/25 06:01:06;;;;;;;9.15;2.90;;;-3.10;99.90;;;;;;5009886;28;20037;-62
2021/12/25 06:03:32;;;;;;;5.80;2.78;;;-3.20;99.90;;;;;;5009435;28;20076;-62
2021/12/25 06:05:59;;;;;;;7.28;2.80;;;-3.20;99.90;;;;;;5008495;28;20072;-63
2021/12/25 06:08:26;;;;;;;5.78;2.88;;;-3.20;99.90;;;;;;5009951;28;20360;-62
2021/12/25 06:10:51;;;;;;;12.20;3.00;;;-3.20;99.90;;;;;;5009266;28;20026;-63
2021/12/25 06:13:20;;;;;;;8.68;3.58;;;-3.20;99.90;;;;;;5002794;28;20036;-61
2021/12/25 06:15:46;;;;;;;9.52;3.38;;;-3.20;99.90;;;;;;5008063;28;20034;-61
2021/12/25 06:18:12;;;;;;;8.43;2.88;;;-3.20;99.90;;;;;;5009185;28;20451;-61
2021/12/25 06:20:39;;;;;;;7.72;2.85;;;-3.20;99.90;;;;;;5009422;28;20026;-62
2021/12/25 06:23:05;;;;;;;17.00;3.03;;;-3.20;99.90;;;;;;5008165;28;20044;-59
2021/12/25 06:25:31;;;;;;;7.43;3.10;;;-3.30;99.90;;;;;;5005754;28;20058;-62
2021/12/25 06:27:57;;;;;;;12.95;4.00;;;-3.30;99.90;;;;;;5009653;28;20048;-62
2021/12/25 06:30:22;;;;;;;8.68;2.78;;;-3.30;99.90;;;;;;5009455;28;20104;-59
2021/12/25 06:32:48;;;;;;;9.45;3.00;;;-3.30;99.90;;;;;;5007438;28;20445;-62
2021/12/25 06:35:14;;;;;;;8.30;2.92;;;-3.40;99.90;;;;;;5008734;28;20033;-62
2021/12/25 06:37:46;;;;;;;8.73;2.97;;;-3.40;99.90;;;;;;5008777;28;20084;-62
2021/12/25 06:40:17;;;;;;;9.07;3.78;;;-3.40;99.90;;;;;;5009858;28;20034;-63
2021/12/25 06:42:43;;;;;;;11.48;2.75;;;-3.40;99.90;;;;;;5008834;28;20499;-62
2021/12/25 06:45:09;;;;;;;7.95;3.13;;;-3.40;99.90;;;;;;5009866;28;20026;-62
2021/12/25 06:47:35;;;;;;;9.80;3.05;;;-3.30;99.90;;;;;;5008620;28;20399;-62
2021/12/25 06:50:01;;;;;;;13.38;3.55;;;-3.40;99.90;;;;;;5009768;28;20491;-62
2021/12/25 06:52:26;;;;;;;8.25;2.55;;;-3.40;99.90;;;;;;5008781;28;20065;-60
2021/12/25 06:54:52;;;;;;;7.03;3.28;;;-3.30;99.90;;;;;;5009372;28;20025;-60
2021/12/25 06:57:18;;;;;;;9.93;2.83;;;-3.30;99.90;;;;;;5008914;28;20481;-60
2021/12/25 06:59:44;;;;;;;8.68;3.47;;;-3.40;99.90;;;;;;5009713;28;20037;-61
2021/12/25 07:02:09;;;;;;;9.60;3.25;;;-3.30;99.90;;;;;;5008940;28;20091;-59
2021/12/25 07:04:35;;;;;;;9.45;3.35;;;-3.40;99.90;;;;;;5008293;28;20045;-59
2021/12/25 07:07:01;;;;;;;9.60;3.28;;;-3.40;99.90;;;;;;5009558;28;20027;-61
2021/12/25 07:09:27;;;;;;;8.07;3.45;;;-3.30;99.90;;;;;;5008720;28;20116;-63
2021/12/25 07:11:52;;;;;;;9.93;3.35;;;-3.40;99.90;;;;;;5007640;28;20026;-60
2021/12/25 07:14:24;;;;;;;8.88;3.38;;;-3.40;99.90;;;;;;5009200;28;20117;-61
2021/12/25 07:16:49;;;;;;;9.68;3.50;;;-3.50;99.90;;;;;;5010621;28;20427;-57
2021/12/25 07:19:16;;;;;;;8.60;3.42;;;-3.50;99.90;;;;;;5010299;28;20026;-59
2021/12/25 07:21:42;;;;;;;10.38;3.55;;;-3.50;99.90;;;;;;5008921;28;20038;-58
2021/12/25 07:24:09;;;;;;;13.02;4.03;;;-3.60;99.90;;;;;;5007349;28;20266;-59
2021/12/25 07:26:36;;;;;;;12.80;3.75;;;-3.50;99.90;;;;;;5008865;28;20139;-58
2021/12/25 07:29:02;;;;;;;13.57;3.70;;;-3.50;99.90;;;;;;5009643;28;20459;-60
2021/12/25 07:31:28;;;;;;;9.00;3.67;;;-3.50;99.90;;;;;;5007540;28;20048;-61
2021/12/25 07:33:54;;;;;;;11.13;3.97;;;-3.50;99.90;;;;;;5008028;28;20033;-59
2021/12/25 07:36:19;;;;;;;10.27;4.05;;;-3.60;99.90;;;;;;5008319;28;20037;-57
2021/12/25 07:38:45;;;;;;;50.58;5.68;;;-3.60;99.90;;;;;;5010836;28;20057;-60
2021/12/25 07:41:11;;;;;;;11.68;4.53;;;-3.50;99.90;;;;;;5012043;28;20026;-60
2021/12/25 07:43:37;;;;;;;7.65;3.92;;;-3.60;99.90;;;;;;5005056;28;20057;-60
2021/12/25 07:46:04;;;;;;;11.27;4.05;;;-3.50;99.90;;;;;;5013434;28;20038;-59
2021/12/25 07:48:29;;;;;;;12.95;3.90;;;-3.50;99.90;;;;;;5011558;28;20026;-58
2021/12/25 07:50:55;;;;;;;11.88;3.97;;;-3.50;99.90;;;;;;5012945;28;20125;-57
2021/12/25 07:53:21;;;;;;;17.40;4.47;;;-3.60;99.90;;;;;;5011653;28;20046;-59
2021/12/25 07:55:48;;;;;;;8.38;3.35;;;-3.50;99.90;;;;;;5013104;28;20034;-56
2021/12/25 07:58:15;;;;;;;14.43;3.95;;;-3.50;99.90;;;;;;5012778;28;20511;-57
2021/12/25 08:00:41;;;;;;;9.75;3.83;;;-3.50;99.90;;;;;;5011111;28;20052;-55
2021/12/25 08:03:07;;;;;;;12.95;4.20;;;-3.40;99.90;;;;;;5012255;28;20030;-57
2021/12/25 08:05:33;;;;;;;9.25;3.58;;;-3.30;99.90;;;;;;5011644;28;20025;-57
2021/12/25 08:07:59;;;;;;;12.57;4.15;;;-3.30;99.90;;;;;;5011997;28;20485;-57
2021/12/25 08:10:25;;;;;;;8.68;3.85;;;-3.30;99.90;;;;;;4993854;28;20026;-55
2021/12/25 08:12:54;;;;;;;9.55;4.35;;;-3.30;99.90;;;;;;5006482;28;20542;-58
2021/12/25 08:15:24;;;;;;;13.00;4.97;;;-3.30;99.90;;;;;;5010908;28;20096;-57
2021/12/25 08:17:50;;;;;;;11.25;4.13;;;-3.20;99.90;;;;;;5012245;28;20091;-60
2021/12/25 08:20:17;;;;;;;15.13;4.88;;;-3.20;99.90;;;;;;5011491;28;20109;-58
2021/12/25 08:22:43;;;;;;;11.35;3.95;;;-3.10;99.90;;;;;;5010631;28;20030;-57
2021/12/25 08:25:10;;;;;;;14.55;4.65;;;-3.10;99.90;;;;;;5011851;28;20041;-57
2021/12/25 08:27:38;;;;;;;9.10;4.05;;;-3.00;99.90;;;;;;4992008;28;20113;-60
2021/12/25 08:30:07;;;;;;;10.55;4.28;;;-3.00;99.90;;;;;;5008323;28;20022;-57
2021/12/25 08:32:33;;;;;;;9.65;3.95;;;-3.00;99.90;;;;;;5012029;28;20496;-59
2021/12/25 08:34:59;;;;;;;14.05;3.70;;;-2.90;99.90;;;;;;5012348;28;20053;-58
2021/12/25 08:37:26;;;;;;;6.25;3.30;;;-2.90;99.90;;;;;;5012797;28;20125;-57
2021/12/25 08:39:53;;;;;;;7.65;3.55;;;-2.90;99.90;;;;;;5012081;28;20456;-57
2021/12/25 08:42:20;;;;;;;13.43;3.58;;;-2.80;99.90;;;;;;5012232;28;20092;-62
2021/12/25 08:45:36;;;;;;;10.85;3.42;;;-2.70;99.90;;;;;;5012097;28;20064;-57
2021/12/25 08:47:38;;;;;;;13.00;4.90;;;-2.70;99.90;;;;;;4995195;28;20041;-57
2021/12/25 08:50:07;;;;;;;9.88;4.18;;;-2.60;99.90;;;;;;5010820;28;20033;-57
2021/12/25 08:52:34;;;;;;;11.52;3.70;;;-2.50;99.90;;;;;;5011896;28;20037;-57
2021/12/25 08:55:00;;;;;;;8.88;3.58;;;-2.50;99.90;;;;;;5010780;28;20515;-58
2021/12/25 08:57:26;;;;;;;11.68;4.20;;;-2.40;99.90;;;;;;5012112;28;20029;-58
2021/12/25 08:59:54;;;;;;;7.78;2.92;;;-2.40;99.90;;;;;;5011771;28;20535;-55
2021/12/25 09:02:23;;;;;;;12.60;3.63;;;-2.20;99.90;;;;;;5011280;28;20034;-57
2021/12/25 09:04:51;;;;;;;10.82;3.70;;;-2.20;99.90;;;;;;5011168;28;20030;-58
2021/12/25 09:07:17;;;;;;;13.77;3.45;;;-2.10;99.90;;;;;;5011304;28;20030;-57
2021/12/25 09:09:43;;;;;;;7.88;3.42;;;-2.00;99.90;;;;;;5010935;28;20021;-58
2021/12/25 09:12:12;;;;;;;11.10;3.33;;;-2.00;99.90;;;;;;5010962;28;20030;-55
2021/12/25 09:14:38;;;;;;;13.27;3.50;;;-1.90;99.90;;;;;;5011498;28;20038;-54
2021/12/25 09:17:05;;;;;;;7.20;2.83;;;-1.90;99.90;;;;;;5010999;28;20037;-55
2021/12/25 09:19:31;;;;;;;14.93;3.55;;;-1.90;99.90;;;;;;5010732;28;20511;-55
2021/12/25 09:21:57;;;;;;;9.20;3.08;;;-1.70;99.90;;;;;;5010169;28;20030;-57
2021/12/25 09:24:24;;;;;;;8.25;3.70;;;-1.70;99.90;;;;;;5010299;28;20100;-54
2021/12/25 09:26:49;;;;;;;10.60;3.17;;;-1.70;99.90;;;;;;5010717;28;20022;-54
2021/12/25 09:29:15;;;;;;;10.02;3.00;;;-1.60;99.90;;;;;;5010588;28;20506;-57
2021/12/25 09:31:41;;;;;;;9.82;3.45;;;-1.60;99.90;;;;;;5009892;28;20069;-57
2021/12/25 09:34:07;;;;;;;7.38;2.72;;;-1.60;99.90;;;;;;5011245;28;20026;-57
2021/12/25 09:36:34;;;;;;;7.15;2.97;;;-1.50;99.90;;;;;;5010676;28;20148;-59
2021/12/25 09:39:02;;;;;;;6.80;2.63;;;-1.40;99.90;;;;;;5010933;28;20068;-60
2021/12/25 09:41:29;;;;;;;9.35;3.92;;;-1.20;99.90;;;;;;5010067;28;20049;-59
2021/12/25 09:43:55;;;;;;;6.50;3.10;;;-1.10;99.90;;;;;;5010834;28;20451;-58
2021/12/25 09:46:21;;;;;;;12.07;3.25;;;-1.00;99.90;;;;;;5010237;28;20105;-59
2021/12/25 09:48:47;;;;;;;8.25;2.90;;;-1.00;99.90;;;;;;5009862;28;20022;-60
2021/12/25 09:51:16;;;;;;;12.38;2.55;;;-0.90;99.90;;;;;;5011454;28;20018;-59
2021/12/25 09:53:41;;;;;;;7.60;2.85;;;-0.80;99.90;;;;;;5009579;28;20037;-58
2021/12/25 09:56:07;;;;;;;4.35;2.35;;;-0.70;99.90;;;;;;5009888;28;20438;-59
2021/12/25 09:58:33;;;;;;;7.63;2.92;;;-0.60;99.90;;;;;;5009025;28;20050;-59
2021/12/25 10:00:59;;;;;;;10.20;2.45;;;-0.40;99.90;;;;;;5011382;28;20033;-59
2021/12/25 10:03:39;;;;;;;7.28;2.50;;;-0.40;99.90;;;;;;5006903;28;20034;-59
2021/12/25 10:06:05;;;;;;;6.43;2.15;;;-0.40;99.90;;;;;;5011251;28;20539;-60
2021/12/25 10:08:31;;;;;;;6.97;2.63;;;-0.40;99.90;;;;;;5008892;28;20141;-58
2021/12/25 10:11:02;;;;;;;13.63;2.70;;;-0.30;99.90;;;;;;5010788;28;20097;-58
2021/12/25 10:13:31;;;;;;;15.60;2.97;;;-0.30;99.90;;;;;;5009217;28;20387;-59
2021/12/25 10:16:23;;;;;;;10.55;3.55;;;-0.20;99.90;;;;;;5010239;28;20030;-59
2021/12/25 10:18:50;;;;;;;7.10;3.13;;;-0.20;99.90;;;;;;5008567;28;20519;-57
2021/12/25 10:21:25;;;;;;;9.57;2.45;;;-0.10;99.90;;;;;;5007824;28;20536;-59
2021/12/25 10:24:15;;;;;;;19.10;3.40;;;0.10;99.90;;;;;;5009762;28;20112;-59
2021/12/25 10:26:44;;;;;;;13.40;3.53;;;0.10;99.90;;;;;;5008564;28;20030;-59
2021/12/25 10:29:15;;;;;;;11.15;3.00;;;0.20;99.90;;;;;;5009537;28;20022;-58
2021/12/25 10:31:41;;;;;;;9.00;3.35;;;0.20;99.90;;;;;;5001650;28;20087;-60
2021/12/25 10:34:16;;;;;;;10.40;4.32;;;0.20;99.90;;;;;;5009529;28;20034;-58
2021/12/25 10:36:43;;;;;;;11.23;3.67;;;0.30;99.90;;;;;;5008483;28;20483;-56
2021/12/25 10:39:12;;;;;;;11.30;3.13;;;0.40;99.90;;;;;;5009797;28;20560;-56
2021/12/25 10:41:41;;;;;;;13.70;4.10;;;0.30;99.90;;;;;;5001196;28;20034;-56
2021/12/25 10:44:12;;;;;;;11.13;3.80;;;0.30;99.90;;;;;;5010104;28;20026;-56
2021/12/25 10:46:59;;;;;;;8.95;3.65;;;0.20;99.90;;;;;;5009025;28;20069;-55
2021/12/25 10:49:38;;;;;;;10.20;3.53;;;0.30;99.90;;;;;;5008806;28;20112;-59
2021/12/25 10:52:19;;;;;;;8.88;3.35;;;0.20;99.90;;;;;;4993618;28;20060;-59
2021/12/25 10:55:01;;;;;;;9.00;3.80;;;0.10;99.90;;;;;;5009594;28;20109;-58
2021/12/25 10:57:31;;;;;;;13.45;3.83;;;0.10;99.90;;;;;;5008453;28;20030;-58
2021/12/25 10:59:57;;;;;;;10.90;4.00;;;0.20;99.90;;;;;;5009529;28;20030;-59
2021/12/25 11:02:42;;;;;;;13.13;4.15;;;0.20;99.90;;;;;;5009559;28;20537;-59
2021/12/25 11:05:36;;;;;;;9.63;4.13;;;0.20;99.90;;;;;;5008112;28;20050;-59
2021/12/25 11:08:29;;;;;;;19.10;4.30;;;0.10;99.90;;;;;;4990393;28;20041;-59
2021/12/25 11:10:59;;;;;;;13.98;4.50;;;0.20;99.90;;;;;;5009674;28;20120;-58
2021/12/25 11:13:41;;;;;;;8.50;4.32;;;0.30;99.90;;;;;;5007756;28;20040;-59
2021/12/25 11:16:20;;;;;;;9.15;3.75;;;0.20;99.90;;;;;;5009762;28;20494;-58
2021/12/25 11:19:57;;;;;;;9.52;3.95;;;0.20;99.90;;;;;;5008692;28;20103;-59
2021/12/25 11:21:59;;;;;;;13.10;4.25;;;0.30;99.90;;;;;;5004242;28;20416;-59
2021/12/25 11:24:35;;;;;;;12.00;3.55;;;0.30;99.90;;;;;;5008285;28;20077;-58
2021/12/25 11:27:06;;;;;;;9.48;3.15;;;0.30;99.90;;;;;;5010241;28;20022;-58
2021/12/25 11:29:36;;;;;;;8.50;3.28;;;0.30;99.90;;;;;;5007838;28;20092;-58
2021/12/25 11:32:04;;;;;;;13.20;3.90;;;0.30;99.90;;;;;;5008888;28;20017;-59
2021/12/25 11:34:30;;;;;;;9.77;3.80;;;0.40;99.90;;;;;;5008358;28;20030;-59
2021/12/25 11:36:58;;;;;;;12.98;4.18;;;0.30;99.90;;;;;;5008377;28;20088;-57
2021/12/25 11:39:25;;;;;;;9.90;3.75;;;0.30;99.90;;;;;;5006080;28;20049;-55
2021/12/25 11:41:55;;;;;;;8.63;3.50;;;0.40;99.90;;;;;;5008860;28;20029;-58
2021/12/25 11:44:39;;;;;;;9.63;3.72;;;0.40;99.90;;;;;;5006584;28;20396;-58
2021/12/25 11:47:06;;;;;;;9.40;3.47;;;0.40;99.90;;;;;;5005351;28;20065;-58
2021/12/25 11:49:32;;;;;;;15.23;4.93;;;0.40;99.90;;;;;;5008415;28;20534;-57
2021/12/25 11:52:18;;;;;;;13.45;3.83;;;0.40;99.90;;;;;;5009033;28;20042;-58
2021/12/25 11:57:45;;;;;;;13.30;3.30;;;0.40;99.90;;;;;;5006952;28;20660;-59
2021/12/25 11:59:58;;;;;;;11.48;4.32;;;0.50;99.90;;;;;;5008288;28;20029;-60
2021/12/25 12:02:43;;;;;;;10.60;3.63;;;0.50;99.90;;;;;;5003461;28;20029;-57
2021/12/25 12:05:24;;;;;;;6.85;3.22;;;0.60;99.90;;;;;;5010296;28;20021;-57
2021/12/25 12:08:03;;;;;;;9.10;3.20;;;0.60;99.90;;;;;;5010162;28;20049;-57
2021/12/25 12:10:44;;;;;;;13.23;3.83;;;0.60;99.90;;;;;;5007921;28;20052;-54
2021/12/25 12:13:25;;;;;;;9.02;3.50;;;0.70;99.90;;;;;;5007942;28;20058;-58
2021/12/25 12:15:53;;;;;;;6.25;3.13;;;0.70;99.90;;;;;;5008899;28;20032;-60
2021/12/25 12:18:30;;;;;;;12.68;3.70;;;0.70;99.90;;;;;;5013274;28;20102;-58
2021/12/25 12:21:10;;;;;;;13.35;3.78;;;0.70;99.90;;;;;;5010387;28;20037;-58
2021/12/25 12:26:50;;;;;;;12.00;3.47;;;0.70;99.90;;;;;;5013149;28;20042;-59
2021/12/25 12:29:38;;;;;;;5.63;2.90;;;0.70;99.90;;;;;;5025298;28;20602;-57
2021/12/25 12:32:05;;;;;;;8.32;3.15;;;0.70;99.90;;;;;;5011721;28;20350;-57
2021/12/25 12:34:33;;;;;;;14.02;3.85;;;0.70;99.90;;;;;;5009386;28;20470;-60
2021/12/25 12:37:14;;;;;;;19.25;3.88;;;0.60;99.90;;;;;;5012109;28;20053;-57
2021/12/25 12:40:05;;;;;;;9.70;3.38;;;0.60;99.90;;;;;;5013335;28;20033;-59
2021/12/25 12:42:50;;;;;;;11.20;3.58;;;0.50;99.90;;;;;;5022965;28;20387;-59
2021/12/25 12:45:25;;;;;;;6.20;3.10;;;0.30;99.90;;;;;;5011406;28;20034;-57
2021/12/25 12:48:09;;;;;;;16.45;3.90;;;0.40;99.90;;;;;;5011763;28;20041;-60
2021/12/25 12:50:35;;;;;;;12.48;3.72;;;0.30;99.90;;;;;;5011012;28;20022;-59
2021/12/25 12:53:06;;;;;;;10.20;3.95;;;0.30;99.90;;;;;;5010337;28;20025;-56
2021/12/25 12:55:35;;;;;;;11.95;4.00;;;0.20;99.90;;;;;;5010074;28;20034;-56
2021/12/25 12:58:09;;;;;;;13.18;4.05;;;0.30;99.90;;;;;;5005065;28;20076;-57
2021/12/25 13:00:35;;;;;;;12.07;4.63;;;0.20;99.90;;;;;;5013002;28;20447;-58
2021/12/25 13:03:01;;;;;;;11.10;4.45;;;0.20;99.90;;;;;;5011285;28;20034;-58
2021/12/25 13:05:33;;;;;;;9.80;3.80;;;0.10;99.90;;;;;;5007926;28;20103;-56
2021/12/25 13:08:01;;;;;;;10.93;4.68;;;0.20;99.90;;;;;;5007747;28;20029;-59
2021/12/25 13:10:44;;;;;;;15.32;4.45;;;0.10;99.90;;;;;;5000260;28;20026;-58
2021/12/25 13:13:24;;;;;;;11.73;4.72;;;0.20;99.90;;;;;;5009886;28;20072;-58
2021/12/25 13:15:56;;;;;;;13.65;4.28;;;0.20;99.90;;;;;;5007058;28;20030;-59
2021/12/25 13:18:36;;;;;;;12.43;4.60;;;0.20;99.90;;;;;;5010915;28;20040;-57
2021/12/25 13:21:10;;;;;;;13.77;4.63;;;0.10;99.90;;;;;;5011744;28;20038;-60
2021/12/25 13:23:42;;;;;;;12.18;4.40;;;0.20;99.90;;;;;;5010574;28;20033;-60
2021/12/25 13:26:09;;;;;;;;;;;0.10;99.90;;;;;;5011875;28;20034;-57
2021/12/25 13:28:40;;;;;;;7.93;3.85;;;0.00;99.90;;;;;;5012078;28;19905;-59
2021/12/25 13:31:12;;;;;;;12.20;3.93;;;0.00;99.90;;;;;;5011725;28;20571;-60
2021/12/25 13:33:47;;;;;;;14.18;5.25;;;0.10;99.90;;;;;;5002715;28;20268;-60
2021/12/25 13:36:17;;;;;;;7.57;3.47;;;0.10;99.90;;;;;;5011086;28;20045;-60
2021/12/25 13:38:53;;;;;;;10.13;3.90;;;0.10;99.90;;;;;;5004279;28;20425;-60
2021/12/25 13:41:38;;;;;;;14.05;4.43;;;0.00;99.90;;;;;;5010573;28;20034;-59
2021/12/25 13:44:08;;;;;;;9.77;3.40;;;0.10;99.90;;;;;;5001954;28;20117;-60
2021/12/25 13:46:50;;;;;;;10.40;3.80;;;0.00;99.90;;;;;;5010917;28;20435;-60
2021/12/25 13:49:38;;;;;;;10.77;3.30;;;-0.10;99.90;;;;;;5011274;28;20069;-59
2021/12/25 13:52:24;;;;;;;12.82;2.90;;;0.00;99.90;;;;;;5006088;28;20056;-59
2021/12/25 13:55:08;;;;;;;10.95;3.25;;;-0.10;99.90;;;;;;5004942;28;20310;-59
2021/12/25 13:57:35;;;;;;;13.10;4.00;;;-0.20;99.90;;;;;;5011227;28;20014;-59
2021/12/25 14:00:16;;;;;;;14.48;3.10;;;-0.20;99.90;;;;;;4993236;28;20502;-58
2021/12/25 14:02:45;;;;;;;7.93;3.15;;;-0.20;99.90;;;;;;5009688;28;20309;-59
2021/12/25 14:05:11;;;;;;;11.05;3.40;;;-0.20;99.90;;;;;;5010148;28;20029;-59
2021/12/25 14:07:39;;;;;;;6.82;2.95;;;-0.20;99.90;;;;;;5011168;28;20030;-58
2021/12/25 14:10:14;;;;;;;15.73;4.00;;;-0.10;99.90;;;;;;5010920;28;20064;-59
2021/12/25 14:12:45;;;;;;;7.55;3.08;;;-0.20;99.90;;;;;;5009123;28;20057;-59
2021/12/25 14:15:13;;;;;;;18.00;3.38;;;-0.20;99.90;;;;;;5010581;28;20021;-58
2021/12/25 14:17:42;;;;;;;13.48;3.08;;;-0.20;99.90;;;;;;5009092;28;20041;-59
2021/12/25 14:20:09;;;;;;;11.75;3.50;;;-0.20;99.90;;;;;;5011203;28;20017;-59
2021/12/25 14:22:36;;;;;;;7.95;3.10;;;-0.20;99.90;;;;;;5010747;28;20367;-58
2021/12/25 14:25:03;;;;;;;10.15;3.58;;;-0.30;99.90;;;;;;5010960;28;20434;-58